Istachatta, Florida
Current Conditions -  °F | °C
As of 2:15 AM on Friday 31 Oct 2014 (Local Time) from KINF Reporting Station
Overcast Overcast  
Wind Chill: 66°   Ceiling: 8000
Heat Index: 66°   Visibility: 10mi
Dew Point: 64°   Wind: 0mph
Humidity: 94%   Direction: NA
Pressure: 29.89"   Gusts: NA
Location:  28.66°N, 82.28°W
Report Text: KINF 310615Z AUTO 00000KT 10SM SCT008 SCT060 OVC080 19/18 A2989 RMK AO2
Loading
Personal Weather Stations






























Interactive Weather Map
Tropical Storm Tracking
New forecast layout! Learn more

10-Day Weather Forecast

Advertisements
Track Severe Weather on mobile